createdAt,value
2023-04-14T00:01:17.660Z,24.60
2023-04-14T00:03:45.903Z,24.60
2023-04-14T00:06:13.989Z,25.10
2023-04-14T00:08:41.831Z,26.10
2023-04-14T00:11:09.836Z,23.90
2023-04-14T00:13:38.183Z,21.70
2023-04-14T00:16:07.063Z,25.40
2023-04-14T00:18:34.993Z,31.20
2023-04-14T00:21:02.741Z,29.50
2023-04-14T00:23:30.652Z,29.60
2023-04-14T00:25:58.448Z,24.50
2023-04-14T00:28:26.228Z,33.90
2023-04-14T00:30:54.112Z,24.60
2023-04-14T00:33:21.956Z,29.10
2023-04-14T00:35:49.829Z,30.50
2023-04-14T00:38:17.725Z,37.20
2023-04-14T00:40:45.866Z,36.40
2023-04-14T00:43:18.087Z,35.20
2023-04-14T00:45:48.717Z,37.90
2023-04-14T00:48:18.887Z,39.70
2023-04-14T00:50:51.370Z,34.40
2023-04-14T00:53:20.020Z,38.30
2023-04-14T00:55:47.852Z,36.20
2023-04-14T00:58:16.199Z,37.80
2023-04-14T01:00:44.227Z,38.10
2023-04-14T01:03:12.390Z,36.00
2023-04-14T01:05:40.371Z,39.70
2023-04-14T01:08:08.323Z,32.60
2023-04-14T01:10:46.894Z,34.50
2023-04-14T01:13:27.295Z,35.90
2023-04-14T01:16:03.750Z,30.00
2023-04-14T01:19:09.239Z,36.40
2023-04-14T01:21:43.698Z,38.40
2023-04-14T01:25:01.749Z,34.60
2023-04-14T01:27:51.528Z,33.20
2023-04-14T01:30:47.264Z,40.20
2023-04-14T01:33:20.748Z,38.60
2023-04-14T01:35:56.886Z,42.60
2023-04-14T01:38:35.917Z,36.20
2023-04-14T01:41:08.705Z,40.20
2023-04-14T01:43:43.966Z,30.70
2023-04-14T01:46:16.931Z,34.70
2023-04-14T01:48:49.513Z,34.50
2023-04-14T01:51:21.319Z,34.90
2023-04-14T01:53:50.865Z,41.60
2023-04-14T01:56:20.889Z,39.20
2023-04-14T01:58:49.999Z,41.80
2023-04-14T02:01:19.826Z,34.40
2023-04-14T02:03:50.115Z,41.60
2023-04-14T02:06:22.094Z,36.90
2023-04-14T02:08:51.524Z,37.50
2023-04-14T02:11:20.941Z,36.50
2023-04-14T02:13:49.379Z,33.90
2023-04-14T02:16:18.745Z,36.60
2023-04-14T02:18:49.244Z,39.40
2023-04-14T02:21:18.837Z,38.70
2023-04-14T02:23:46.726Z,30.60
2023-04-14T02:26:22.049Z,35.10
2023-04-14T02:28:58.300Z,32.90
2023-04-14T02:31:30.225Z,30.70
2023-04-14T02:34:00.742Z,38.10
2023-04-14T02:36:39.165Z,38.50
2023-04-14T02:39:17.825Z,35.00
2023-04-14T02:41:48.444Z,33.50
2023-04-14T02:44:26.972Z,33.30
2023-04-14T02:47:09.396Z,31.90
2023-04-14T02:49:47.688Z,30.70
2023-04-14T02:52:20.166Z,28.90
2023-04-14T02:54:49.736Z,32.70
2023-04-14T02:57:18.955Z,28.90
2023-04-14T02:59:50.724Z,28.10
2023-04-14T03:02:20.275Z,25.00
2023-04-14T03:04:53.764Z,26.60
2023-04-14T03:07:29.295Z,29.00
2023-04-14T03:09:58.399Z,31.70
2023-04-14T03:12:28.097Z,32.40
2023-04-14T03:14:57.422Z,31.90
2023-04-14T03:17:26.252Z,31.10
2023-04-14T03:19:54.374Z,30.80
2023-04-14T03:22:26.613Z,27.40
2023-04-14T03:24:58.909Z,25.40
2023-04-14T03:27:31.720Z,27.50
2023-04-14T03:30:05.055Z,33.00
2023-04-14T03:32:42.230Z,35.40
2023-04-14T03:35:15.434Z,29.00
2023-04-14T03:37:46.130Z,31.80
2023-04-14T03:40:15.576Z,30.50
2023-04-14T03:42:48.559Z,29.80
2023-04-14T03:45:21.120Z,28.90
2023-04-14T03:47:53.527Z,33.20
2023-04-14T03:50:23.579Z,29.60
2023-04-14T03:52:56.431Z,28.70
2023-04-14T03:55:27.412Z,30.90
2023-04-14T03:57:57.552Z,34.20
2023-04-14T04:00:29.280Z,29.60
2023-04-14T04:05:29.648Z,32.30
2023-04-14T04:08:02.967Z,28.50
2023-04-14T04:10:34.356Z,32.10
2023-04-14T04:13:06.671Z,31.60
2023-04-14T04:15:34.919Z,30.40
2023-04-14T04:18:05.925Z,29.50
2023-04-14T04:20:38.403Z,28.60
2023-04-14T04:23:08.224Z,33.60
2023-04-14T04:25:38.271Z,27.60
2023-04-14T04:28:12.340Z,34.50
2023-04-14T04:30:41.492Z,35.10
2023-04-14T04:33:11.132Z,35.80
2023-04-14T04:35:41.088Z,35.10
2023-04-14T04:38:11.418Z,32.50
2023-04-14T04:40:41.374Z,37.50
2023-04-14T04:43:20.250Z,33.50
2023-04-14T04:46:12.370Z,28.40
2023-04-14T04:48:40.420Z,29.20
2023-04-14T04:51:08.523Z,26.20
2023-04-14T04:53:36.476Z,28.30
2023-04-14T04:56:06.362Z,26.50
2023-04-14T04:58:34.174Z,30.80
2023-04-14T05:01:10.342Z,29.40
2023-04-14T05:03:38.778Z,28.50
2023-04-14T05:06:06.661Z,31.20
2023-04-14T05:08:34.495Z,28.80
2023-04-14T05:11:02.275Z,31.30
2023-04-14T05:13:30.172Z,25.00
2023-04-14T05:16:08.792Z,27.80
2023-04-14T05:18:38.360Z,27.30
2023-04-14T05:21:14.321Z,34.80
2023-04-14T05:23:44.814Z,37.10
2023-04-14T05:26:44.722Z,31.10
2023-04-14T05:29:09.992Z,34.20
2023-04-14T05:31:38.036Z,32.40
2023-04-14T05:34:05.995Z,32.20
2023-04-14T05:36:33.783Z,29.70
2023-04-14T05:39:02.131Z,25.60
2023-04-14T05:41:29.941Z,29.70
2023-04-14T05:44:00.056Z,26.40
2023-04-14T05:46:28.398Z,34.20
2023-04-14T05:48:57.647Z,31.80
2023-04-14T05:51:26.979Z,28.50
2023-04-14T05:53:55.504Z,29.40
2023-04-14T05:56:23.422Z,33.00
2023-04-14T05:58:55.697Z,33.60
2023-04-14T06:01:23.500Z,31.10
2023-04-14T06:03:51.439Z,26.40
2023-04-14T06:06:22.589Z,30.10
2023-04-14T06:08:51.662Z,31.70
2023-04-14T06:11:19.418Z,29.80
2023-04-14T06:13:47.182Z,31.00
2023-04-14T06:16:15.019Z,34.90
2023-04-14T06:18:42.792Z,28.20
2023-04-14T06:21:11.110Z,36.40
2023-04-14T06:23:38.961Z,29.70
2023-04-14T06:26:08.674Z,30.30
2023-04-14T06:28:36.504Z,32.20
2023-04-14T06:31:05.062Z,31.00
2023-04-14T06:33:33.011Z,32.80
2023-04-14T06:36:01.697Z,29.30
2023-04-14T06:38:29.556Z,34.80
2023-04-14T06:40:57.310Z,31.60
2023-04-14T06:43:25.271Z,38.40
2023-04-14T06:45:53.143Z,32.30
2023-04-14T06:48:20.965Z,32.10
2023-04-14T06:50:56.615Z,29.70
2023-04-14T06:53:24.716Z,34.30
2023-04-14T06:55:59.417Z,26.70
2023-04-14T06:58:29.175Z,32.60
2023-04-14T07:01:02.614Z,35.90
2023-04-14T07:03:34.497Z,38.00
2023-04-14T07:06:09.280Z,33.00
2023-04-14T07:08:38.714Z,38.60
2023-04-14T07:11:10.277Z,33.60
2023-04-14T07:13:39.197Z,43.40
2023-04-14T07:16:07.642Z,38.80
2023-04-14T07:18:36.054Z,40.30
2023-04-14T07:21:04.152Z,37.80
2023-04-14T07:23:33.551Z,39.10
2023-04-14T07:26:01.562Z,36.70
2023-04-14T07:28:30.596Z,37.50
2023-04-14T07:30:58.510Z,39.50
2023-04-14T07:33:30.301Z,42.30
2023-04-14T07:36:03.577Z,37.50
2023-04-14T07:38:33.139Z,41.30
2023-04-14T07:41:06.368Z,37.90
2023-04-14T07:43:38.162Z,36.10
2023-04-14T07:46:08.083Z,39.30
2023-04-14T07:48:37.379Z,33.10
2023-04-14T07:51:05.729Z,38.60
2023-04-14T07:53:34.757Z,36.70
2023-04-14T07:56:02.753Z,40.20
2023-04-14T07:58:30.554Z,49.70
2023-04-14T08:00:58.474Z,39.20
2023-04-14T08:03:26.735Z,43.80
2023-04-14T08:05:55.314Z,44.90
2023-04-14T08:08:24.736Z,41.20
2023-04-14T08:10:52.702Z,44.60
2023-04-14T08:13:20.614Z,38.50
2023-04-14T08:15:49.242Z,38.70
2023-04-14T08:18:18.305Z,39.70
2023-04-14T08:20:46.141Z,34.70
2023-04-14T08:23:14.044Z,35.70
2023-04-14T08:25:42.441Z,38.00
2023-04-14T08:28:10.312Z,38.10
2023-04-14T08:30:38.365Z,38.50
2023-04-14T08:33:06.250Z,35.60
2023-04-14T08:35:41.480Z,37.00
2023-04-14T08:38:11.524Z,49.20
2023-04-14T08:40:42.317Z,36.20
2023-04-14T08:43:12.463Z,36.70
2023-04-14T08:45:41.875Z,31.60
2023-04-14T08:48:12.169Z,31.30
2023-04-14T08:50:54.348Z,30.70
2023-04-14T08:53:25.358Z,35.20
2023-04-14T08:55:56.846Z,35.60
2023-04-14T08:58:26.197Z,34.00
2023-04-14T09:00:54.132Z,32.70
2023-04-14T09:03:22.787Z,33.50
2023-04-14T09:05:53.993Z,32.90
2023-04-14T09:08:22.474Z,34.30
2023-04-14T09:10:51.169Z,34.60
2023-04-14T09:13:22.957Z,43.00
2023-04-14T09:15:51.240Z,111.60
2023-04-14T09:18:19.182Z,45.20
2023-04-14T09:21:29.357Z,35.60
2023-04-14T09:23:41.694Z,34.30
2023-04-14T09:26:10.492Z,35.10
2023-04-14T09:28:38.531Z,34.70
2023-04-14T09:31:06.786Z,36.00
2023-04-14T09:33:50.186Z,35.80
2023-04-14T09:36:28.914Z,36.90
2023-04-14T09:38:57.218Z,33.70
2023-04-14T09:41:28.022Z,32.40
2023-04-14T09:43:56.103Z,29.10
2023-04-14T09:46:23.928Z,28.70
2023-04-14T09:48:55.008Z,30.00
2023-04-14T09:51:30.118Z,33.20
2023-04-14T09:54:06.020Z,39.90
2023-04-14T09:56:34.474Z,33.00
2023-04-14T09:59:03.679Z,28.70
2023-04-14T10:01:34.422Z,28.60
2023-04-14T10:04:03.067Z,29.00
2023-04-14T10:06:32.139Z,32.40
2023-04-14T10:09:01.437Z,32.90
2023-04-14T10:11:35.220Z,30.60
2023-04-14T10:14:05.965Z,32.40
2023-04-14T10:16:34.619Z,36.00
2023-04-14T10:19:03.457Z,26.60
2023-04-14T10:21:32.805Z,35.50
2023-04-14T10:24:01.145Z,31.10
2023-04-14T10:26:29.975Z,31.30
2023-04-14T10:28:58.872Z,26.40
2023-04-14T10:31:33.133Z,35.90
2023-04-14T10:34:15.768Z,33.40
2023-04-14T10:36:44.370Z,35.40
2023-04-14T10:39:12.805Z,63.60
2023-04-14T10:41:43.592Z,31.70
2023-04-14T10:44:31.525Z,24.80
2023-04-14T10:47:02.278Z,26.70
2023-04-14T10:49:38.618Z,29.00
2023-04-14T10:52:15.216Z,27.70
2023-04-14T10:55:01.281Z,28.20
2023-04-14T10:57:30.189Z,24.60
2023-04-14T11:00:00.006Z,21.80
2023-04-14T11:02:33.701Z,28.60
2023-04-14T11:05:11.492Z,60.70
2023-04-14T11:07:54.398Z,61.60
2023-04-14T11:10:22.635Z,23.40
2023-04-14T11:13:12.253Z,22.60
2023-04-14T11:15:57.053Z,25.30
2023-04-14T11:18:35.693Z,23.40
2023-04-14T11:21:13.273Z,24.30
2023-04-14T11:23:42.437Z,19.90
2023-04-14T11:26:13.272Z,19.30
2023-04-14T11:28:43.496Z,21.40
2023-04-14T11:31:15.248Z,23.90
2023-04-14T11:33:44.949Z,21.40
2023-04-14T11:36:13.427Z,20.90
2023-04-14T11:38:42.783Z,33.20
2023-04-14T11:41:15.279Z,23.90
2023-04-14T11:43:46.605Z,22.20
2023-04-14T11:46:16.235Z,35.50
2023-04-14T11:48:44.073Z,21.60
2023-04-14T11:51:12.111Z,13.70
2023-04-14T11:53:41.275Z,18.20
2023-04-14T11:56:09.384Z,14.10
2023-04-14T11:58:37.260Z,14.30
2023-04-14T12:01:05.188Z,16.80
2023-04-14T12:03:35.194Z,15.00
2023-04-14T12:06:03.842Z,12.10
2023-04-14T12:08:33.390Z,19.70
2023-04-14T12:11:14.865Z,11.70
2023-04-14T12:13:45.211Z,11.80
2023-04-14T12:16:15.901Z,12.10
2023-04-14T12:18:44.392Z,14.60
2023-04-14T12:21:20.626Z,12.70
2023-04-14T12:23:49.063Z,52.40
2023-04-14T12:26:17.401Z,15.40
2023-04-14T12:28:45.326Z,11.70
2023-04-14T12:31:13.182Z,11.60
2023-04-14T12:33:41.392Z,11.00
2023-04-14T12:36:13.195Z,10.90
2023-04-14T12:38:41.632Z,12.60
2023-04-14T12:41:10.888Z,10.70
2023-04-14T12:43:41.252Z,10.40
2023-04-14T12:46:09.159Z,11.00
2023-04-14T12:48:47.181Z,13.20
2023-04-14T12:51:19.789Z,15.30
2023-04-14T12:53:50.203Z,12.50
2023-04-14T12:56:22.272Z,11.20
2023-04-14T12:58:51.305Z,10.80
2023-04-14T13:01:20.555Z,10.50
2023-04-14T13:03:57.760Z,9.40
2023-04-14T13:06:25.810Z,12.40
2023-04-14T13:08:56.198Z,10.80
2023-04-14T13:11:24.531Z,11.30
2023-04-14T13:13:53.850Z,9.60
2023-04-14T13:16:22.751Z,12.70
2023-04-14T13:18:54.373Z,6.90
2023-04-14T13:21:22.144Z,10.10
2023-04-14T13:23:50.146Z,9.10
2023-04-14T13:26:17.893Z,10.90
2023-04-14T13:28:45.962Z,10.60
2023-04-14T13:31:17.999Z,8.90
2023-04-14T13:33:45.996Z,7.80
2023-04-14T13:36:13.914Z,7.10
2023-04-14T13:38:42.037Z,6.50
2023-04-14T13:41:09.914Z,6.90
2023-04-14T13:43:37.768Z,8.50
2023-04-14T13:46:05.761Z,7.70
2023-04-14T13:48:33.728Z,7.50
2023-04-14T13:51:01.880Z,6.40
2023-04-14T13:53:29.908Z,6.90
2023-04-14T13:55:57.689Z,7.60
2023-04-14T13:58:26.302Z,5.90
2023-04-14T14:00:55.272Z,6.40
2023-04-14T14:03:25.080Z,8.00
2023-04-14T14:05:53.177Z,6.60
2023-04-14T14:08:21.235Z,8.90
2023-04-14T14:10:49.059Z,7.10
2023-04-14T14:13:18.519Z,7.60
2023-04-14T14:15:47.680Z,6.90
2023-04-14T14:18:16.436Z,7.70
2023-04-14T14:20:44.208Z,7.20
2023-04-14T14:23:12.952Z,7.10
2023-04-14T14:25:41.400Z,6.00
2023-04-14T14:28:09.219Z,6.30
2023-04-14T14:30:37.361Z,5.80
2023-04-14T14:33:05.928Z,10.90
2023-04-14T14:35:33.764Z,5.30
2023-04-14T14:38:01.575Z,5.90
2023-04-14T14:40:29.994Z,5.60
2023-04-14T14:42:57.993Z,7.20
2023-04-14T14:45:30.423Z,8.10
2023-04-14T14:47:59.461Z,8.50
2023-04-14T14:50:27.545Z,7.40
2023-04-14T14:52:56.889Z,6.50
2023-04-14T14:55:24.892Z,7.70
2023-04-14T14:57:52.823Z,5.50
2023-04-14T15:00:20.666Z,7.60
2023-04-14T15:02:48.535Z,7.00
2023-04-14T15:05:16.831Z,9.60
2023-04-14T15:07:44.775Z,7.80
2023-04-14T15:10:12.594Z,5.80
2023-04-14T15:12:40.734Z,6.90
2023-04-14T15:15:08.989Z,8.90
2023-04-14T15:17:37.659Z,10.10
2023-04-14T15:20:06.964Z,6.00
2023-04-14T15:22:35.918Z,8.90
2023-04-14T15:25:05.222Z,6.10
2023-04-14T15:27:33.098Z,8.60
2023-04-14T15:30:01.464Z,9.20
2023-04-14T15:32:29.501Z,8.20
2023-04-14T15:34:57.686Z,7.20
2023-04-14T15:37:26.330Z,10.00
2023-04-14T15:39:55.006Z,8.70
2023-04-14T15:42:22.979Z,12.00
2023-04-14T15:44:53.690Z,9.70
2023-04-14T15:47:21.591Z,8.70
2023-04-14T15:49:52.647Z,28.80
2023-04-14T15:52:39.539Z,15.40
2023-04-14T15:55:09.391Z,8.50
2023-04-14T15:57:37.721Z,9.60
2023-04-14T16:00:07.333Z,9.70
2023-04-14T16:02:41.865Z,11.80
2023-04-14T16:05:10.419Z,12.20
2023-04-14T16:07:39.398Z,13.00
2023-04-14T16:10:08.574Z,9.60
2023-04-14T16:12:36.707Z,17.80
2023-04-14T16:15:08.386Z,12.60
2023-04-14T16:17:36.339Z,13.80
2023-04-14T16:20:04.872Z,11.10
2023-04-14T16:22:32.703Z,10.30
2023-04-14T16:25:00.810Z,10.20
2023-04-14T16:27:29.374Z,11.40
2023-04-14T16:29:57.235Z,12.60
2023-04-14T16:32:25.220Z,10.00
2023-04-14T16:34:53.140Z,12.30
2023-04-14T16:37:21.343Z,12.80
2023-04-14T16:39:53.667Z,13.80
2023-04-14T16:42:27.426Z,11.10
2023-04-14T16:44:56.103Z,12.80
2023-04-14T16:47:24.120Z,10.90
2023-04-14T16:49:52.789Z,11.50
2023-04-14T16:52:20.690Z,10.10
2023-04-14T16:54:48.603Z,11.90
2023-04-14T16:57:16.535Z,12.00
2023-04-14T16:59:46.073Z,13.60
2023-04-14T17:02:14.191Z,13.60
2023-04-14T17:04:42.438Z,12.20
2023-04-14T17:07:12.498Z,11.40
2023-04-14T17:09:40.477Z,14.10
2023-04-14T17:12:08.565Z,13.00
2023-04-14T17:14:37.319Z,12.00
2023-04-14T17:17:05.318Z,10.90
2023-04-14T17:19:37.441Z,15.70
2023-04-14T17:22:05.597Z,15.10
2023-04-14T17:24:33.584Z,11.90
2023-04-14T17:27:02.190Z,14.60
2023-04-14T17:29:30.115Z,11.50
2023-04-14T17:31:57.985Z,12.80
2023-04-14T17:34:26.255Z,12.20
2023-04-14T17:36:57.225Z,9.60
2023-04-14T17:39:27.110Z,12.80
2023-04-14T17:41:57.847Z,10.60
2023-04-14T17:44:34.052Z,10.10
2023-04-14T17:47:04.780Z,12.00
2023-04-14T17:49:33.992Z,10.60
2023-04-14T17:54:49.522Z,10.90
2023-04-14T17:57:17.510Z,9.70
2023-04-14T17:59:45.561Z,10.20
2023-04-14T18:02:16.434Z,12.10
2023-04-14T18:04:45.490Z,9.90
2023-04-14T18:07:13.359Z,12.60
2023-04-14T18:09:41.582Z,12.40
2023-04-14T18:12:10.716Z,13.90
2023-04-14T18:14:38.554Z,28.70
2023-04-14T18:17:06.620Z,11.80
2023-04-14T18:19:35.757Z,12.30
2023-04-14T18:22:05.909Z,12.60
2023-04-14T18:29:39.755Z,16.00
2023-04-14T18:32:07.710Z,12.40
2023-04-14T18:34:35.735Z,13.00
2023-04-14T18:37:04.011Z,12.30
2023-04-14T18:39:34.287Z,14.50
2023-04-14T18:42:03.240Z,9.60
2023-04-14T18:44:31.456Z,11.10
2023-04-14T18:46:59.518Z,10.70
2023-04-14T18:49:28.352Z,9.60
2023-04-14T18:51:56.705Z,13.80
2023-04-14T18:54:24.679Z,9.70
2023-04-14T18:56:52.596Z,11.40
2023-04-14T18:59:20.380Z,13.40
2023-04-14T19:01:48.386Z,17.10
2023-04-14T19:04:16.396Z,24.80
2023-04-14T19:06:44.184Z,10.40
2023-04-14T19:09:15.509Z,13.00
2023-04-14T19:11:46.984Z,9.90
2023-04-14T19:14:15.172Z,10.30
2023-04-14T19:16:43.600Z,11.70
2023-04-14T19:19:11.645Z,10.70
2023-04-14T19:21:39.435Z,11.50
2023-04-14T19:24:07.335Z,10.00
2023-04-14T19:26:37.649Z,13.80
2023-04-14T19:29:05.507Z,9.40
2023-04-14T19:31:34.172Z,26.50
2023-04-14T19:34:02.165Z,18.80
2023-04-14T19:36:32.231Z,10.20
2023-04-14T19:39:00.484Z,11.40
2023-04-14T19:41:29.209Z,12.20
2023-04-14T19:43:57.125Z,9.30
2023-04-14T19:46:24.897Z,9.70
2023-04-14T19:48:54.476Z,12.10
2023-04-14T19:51:22.508Z,9.10
2023-04-14T19:53:51.615Z,25.70
2023-04-14T19:56:19.859Z,11.20
2023-04-14T19:58:48.108Z,14.00
2023-04-14T20:01:16.114Z,9.10
2023-04-14T20:04:08.227Z,8.00
2023-04-14T20:06:32.894Z,7.90
2023-04-14T20:09:02.022Z,6.70
2023-04-14T20:11:30.757Z,6.50
2023-04-14T20:13:58.701Z,6.70
2023-04-14T20:16:26.887Z,7.00
2023-04-14T20:18:55.361Z,5.50
2023-04-14T20:21:23.359Z,7.30
2023-04-14T20:23:51.094Z,6.60
2023-04-14T20:26:18.816Z,7.20
2023-04-14T20:28:47.536Z,7.90
2023-04-14T20:31:15.536Z,8.90
2023-04-14T20:33:44.267Z,7.80
2023-04-14T20:36:12.444Z,8.20
2023-04-14T20:38:40.314Z,6.80
2023-04-14T20:41:08.189Z,9.00
2023-04-14T20:43:36.060Z,6.90
2023-04-14T20:46:09.407Z,9.30
2023-04-14T20:48:37.622Z,9.10
2023-04-14T20:51:05.540Z,7.40
2023-04-14T20:53:35.102Z,9.10
2023-04-14T20:56:03.142Z,6.80
2023-04-14T20:58:31.539Z,8.30
2023-04-14T21:00:59.357Z,9.10
2023-04-14T21:03:28.560Z,7.80
2023-04-14T21:05:56.580Z,8.40
2023-04-14T21:08:24.351Z,9.50
2023-04-14T21:11:14.920Z,11.50
2023-04-14T21:15:26.702Z,11.40
2023-04-14T21:16:29.936Z,12.10
2023-04-14T21:18:57.719Z,9.90
2023-04-14T21:21:26.206Z,7.10
2023-04-14T21:23:59.252Z,8.00
2023-04-14T21:26:31.640Z,7.30
2023-04-14T21:28:59.862Z,10.00
2023-04-14T21:31:28.146Z,7.70
2023-04-14T21:33:56.017Z,9.00
2023-04-14T21:36:24.476Z,8.80
2023-04-14T21:38:52.337Z,7.30
2023-04-14T21:41:20.882Z,7.80
2023-04-14T21:43:48.675Z,8.70
2023-04-14T21:46:16.622Z,8.40
2023-04-14T21:48:44.667Z,7.90
2023-04-14T21:51:12.680Z,9.70
2023-04-14T21:53:40.459Z,9.20
2023-04-14T21:56:11.026Z,8.40
2023-04-14T21:58:40.338Z,6.70
2023-04-14T22:01:10.044Z,8.10
2023-04-14T22:03:40.938Z,11.40
2023-04-14T22:06:11.045Z,8.40
2023-04-14T22:08:40.664Z,12.30
2023-04-14T22:11:08.841Z,6.40
2023-04-14T22:13:36.781Z,9.20
2023-04-14T22:16:05.127Z,11.00
2023-04-14T22:18:32.992Z,8.50
2023-04-14T22:21:00.812Z,6.10
2023-04-14T22:23:28.737Z,7.60
2023-04-14T22:25:56.972Z,9.90
2023-04-14T22:28:24.726Z,8.20
2023-04-14T22:30:52.870Z,6.50
2023-04-14T22:33:20.924Z,9.80
2023-04-14T22:35:49.537Z,9.30
2023-04-14T22:38:17.489Z,7.30
2023-04-14T22:40:45.555Z,8.30
2023-04-14T22:43:13.389Z,47.20
2023-04-14T22:45:41.968Z,34.00
2023-04-14T22:48:10.295Z,12.10
2023-04-14T22:50:39.147Z,10.20
2023-04-14T22:53:07.574Z,8.00
2023-04-14T22:55:35.976Z,8.20
2023-04-14T22:58:04.397Z,10.40
2023-04-14T23:00:33.423Z,13.30
2023-04-14T23:03:01.287Z,37.80
2023-04-14T23:05:29.541Z,20.80
2023-04-14T23:07:57.326Z,9.50
2023-04-14T23:10:25.303Z,12.90
2023-04-14T23:12:53.084Z,8.40
2023-04-14T23:15:20.984Z,8.50
2023-04-14T23:17:48.896Z,8.40
2023-04-14T23:20:16.726Z,8.90
2023-04-14T23:22:45.338Z,11.20
2023-04-14T23:25:13.461Z,10.40
2023-04-14T23:27:41.229Z,13.40
2023-04-14T23:30:10.291Z,8.10
2023-04-14T23:32:38.484Z,14.90
2023-04-14T23:35:07.753Z,10.20
2023-04-14T23:37:35.705Z,9.10
2023-04-14T23:40:07.936Z,9.80
2023-04-14T23:42:35.800Z,13.50
2023-04-14T23:45:05.224Z,10.40
2023-04-14T23:47:33.090Z,12.80
2023-04-14T23:50:01.132Z,9.30
2023-04-14T23:52:28.927Z,9.20
2023-04-14T23:54:56.670Z,11.20
2023-04-14T23:57:24.618Z,9.90
2023-04-14T23:59:52.983Z,8.70
